createdAt,value
2023-03-08T00:00:02.905Z,6.29
2023-03-08T00:00:59.691Z,6.36
2023-03-08T00:01:59.819Z,6.47
2023-03-08T00:02:59.825Z,6.34
2023-03-08T00:03:59.933Z,6.31
2023-03-08T00:05:00.056Z,6.25
2023-03-08T00:05:59.870Z,6.34
2023-03-08T00:06:59.838Z,6.36
2023-03-08T00:07:59.810Z,6.35
2023-03-08T00:08:59.858Z,6.36
2023-03-08T00:09:59.850Z,6.41
2023-03-08T00:11:02.630Z,6.41
2023-03-08T00:11:59.956Z,6.34
2023-03-08T00:12:59.828Z,6.39
2023-03-08T00:13:59.980Z,6.39
2023-03-08T00:14:59.901Z,6.36
2023-03-08T00:15:59.977Z,6.34
2023-03-08T00:16:59.861Z,6.35
2023-03-08T00:17:59.852Z,6.39
2023-03-08T00:18:59.866Z,6.38
2023-03-08T00:19:59.840Z,6.47
2023-03-08T00:20:59.854Z,6.41
2023-03-08T00:22:02.923Z,6.39
2023-03-08T00:22:59.860Z,6.41
2023-03-08T00:23:59.880Z,6.29
2023-03-08T00:24:59.854Z,6.34
2023-03-08T00:25:59.889Z,6.5
2023-03-08T00:26:59.841Z,6.36
2023-03-08T00:27:59.839Z,6.43
2023-03-08T00:28:59.985Z,6.41
2023-03-08T00:29:59.869Z,6.43
2023-03-08T00:31:00.032Z,6.35
2023-03-08T00:31:59.875Z,6.38
2023-03-08T00:33:02.728Z,6.38
2023-03-08T00:33:59.963Z,6.36
2023-03-08T00:34:59.853Z,6.35
2023-03-08T00:35:59.993Z,6.38
2023-03-08T00:36:59.923Z,6.44
2023-03-08T00:37:59.860Z,6.52
2023-03-08T00:38:59.854Z,6.47
2023-03-08T00:39:59.855Z,6.39
2023-03-08T00:40:59.919Z,6.36
2023-03-08T00:41:59.887Z,6.47
2023-03-08T00:42:59.889Z,6.47
2023-03-08T00:44:02.856Z,6.49
2023-03-08T00:44:59.871Z,6.39
2023-03-08T00:45:59.895Z,6.47
2023-03-08T00:47:00.084Z,6.52
2023-03-08T00:47:59.914Z,6.6
2023-03-08T00:48:59.900Z,6.41
2023-03-08T00:49:59.877Z,6.5
2023-03-08T00:50:59.904Z,6.49
2023-03-08T00:51:59.894Z,6.35
2023-03-08T00:52:59.959Z,6.52
2023-03-08T00:53:59.903Z,6.34
2023-03-08T00:55:02.671Z,6.52
2023-03-08T00:55:59.928Z,6.39
2023-03-08T00:56:59.950Z,6.46
2023-03-08T00:57:59.890Z,6.47
2023-03-08T00:58:59.898Z,6.47
2023-03-08T00:59:59.875Z,6.43
2023-03-08T01:01:00.180Z,6.43
2023-03-08T01:01:59.899Z,6.41
2023-03-08T01:03:02.747Z,6.53
2023-03-08T01:04:00.143Z,6.39
2023-03-08T01:04:59.909Z,6.5
2023-03-08T01:06:02.770Z,6.5
2023-03-08T01:06:59.944Z,6.47
2023-03-08T01:07:59.910Z,6.5
2023-03-08T01:08:59.920Z,6.47
2023-03-08T01:09:59.911Z,6.52
2023-03-08T01:11:00.011Z,6.46
2023-03-08T01:11:59.906Z,6.39
2023-03-08T01:12:59.967Z,6.5
2023-03-08T01:13:59.905Z,6.47
2023-03-08T01:14:59.909Z,6.52
2023-03-08T01:15:59.937Z,6.5
2023-03-08T01:17:00.989Z,6.35
2023-03-08T01:17:59.902Z,6.49
2023-03-08T01:18:59.967Z,6.5
2023-03-08T01:19:59.956Z,6.46
2023-03-08T01:20:59.929Z,6.5
2023-03-08T01:22:02.742Z,6.52
2023-03-08T01:22:59.911Z,6.49
2023-03-08T01:23:59.916Z,6.52
2023-03-08T01:24:59.935Z,6.54
2023-03-08T01:25:59.947Z,6.52
2023-03-08T01:26:59.935Z,6.56
2023-03-08T01:27:59.942Z,6.39
2023-03-08T01:28:59.936Z,6.53
2023-03-08T01:29:59.931Z,6.59
2023-03-08T01:30:59.917Z,6.38
2023-03-08T01:31:59.942Z,6.54
2023-03-08T01:33:02.984Z,6.38
2023-03-08T01:33:59.953Z,6.49
2023-03-08T01:34:59.994Z,6.53
2023-03-08T01:36:00.210Z,6.49
2023-03-08T01:36:59.940Z,6.49
2023-03-08T01:37:59.974Z,6.54
2023-03-08T01:38:59.993Z,6.49
2023-03-08T01:39:59.986Z,6.49
2023-03-08T01:40:59.962Z,6.59
2023-03-08T01:41:59.948Z,6.34
2023-03-08T01:42:59.975Z,6.49
2023-03-08T01:43:59.989Z,6.54
2023-03-08T01:44:59.967Z,6.57
2023-03-08T01:45:59.972Z,6.57
2023-03-08T01:46:59.995Z,6.46
2023-03-08T01:47:59.985Z,6.5
2023-03-08T01:49:03.145Z,6.54
2023-03-08T01:49:59.968Z,6.56
2023-03-08T01:51:00.022Z,6.44
2023-03-08T01:51:59.983Z,6.5
2023-03-08T01:52:59.961Z,6.32
2023-03-08T01:53:59.959Z,6.32
2023-03-08T01:54:59.986Z,6.41
2023-03-08T01:55:59.959Z,6.53
2023-03-08T01:56:59.956Z,6.5
2023-03-08T01:57:59.971Z,6.53
2023-03-08T01:58:59.970Z,6.52
2023-03-08T02:00:02.756Z,6.5
2023-03-08T02:01:00.210Z,6.44
2023-03-08T02:01:59.981Z,6.41
2023-03-08T02:03:00.045Z,6.52
2023-03-08T02:03:59.963Z,6.5
2023-03-08T02:05:02.763Z,6.36
2023-03-08T02:05:59.984Z,6.49
2023-03-08T02:07:00.032Z,6.54
2023-03-08T02:08:00.047Z,6.38
2023-03-08T02:08:59.970Z,6.44
2023-03-08T02:10:00.033Z,6.35
2023-03-08T02:11:02.956Z,6.31
2023-03-08T02:11:59.989Z,6.39
2023-03-08T02:13:00.116Z,6.43
2023-03-08T02:14:00.015Z,6.38
2023-03-08T02:15:00.060Z,6.47
2023-03-08T02:16:01.041Z,6.34
2023-03-08T02:17:00.001Z,6.47
2023-03-08T02:18:00.016Z,6.29
2023-03-08T02:19:00.055Z,6.47
2023-03-08T02:20:00.011Z,6.5
2023-03-08T02:21:00.050Z,6.47
2023-03-08T02:22:09.112Z,6.52
2023-03-08T02:22:59.997Z,6.35
2023-03-08T02:24:00.031Z,6.47
2023-03-08T02:25:00.026Z,6.5
2023-03-08T02:26:00.013Z,6.54
2023-03-08T02:27:03.507Z,6.46
2023-03-08T02:28:00.191Z,6.54
2023-03-08T02:29:00.014Z,6.53
2023-03-08T02:30:00.032Z,6.64
2023-03-08T02:31:00.048Z,6.5
2023-03-08T02:32:00.112Z,6.39
2023-03-08T02:33:03.056Z,6.5
2023-03-08T02:34:00.034Z,6.39
2023-03-08T02:35:00.037Z,6.52
2023-03-08T02:36:01.347Z,6.56
2023-03-08T02:37:00.066Z,6.57
2023-03-08T02:38:02.877Z,6.57
2023-03-08T02:39:00.113Z,6.59
2023-03-08T02:40:00.189Z,6.54
2023-03-08T02:41:00.034Z,6.54
2023-03-08T02:42:00.070Z,6.62
2023-03-08T02:43:00.098Z,6.56
2023-03-08T02:44:00.059Z,6.53
2023-03-08T02:45:00.127Z,6.53
2023-03-08T02:46:00.164Z,6.39
2023-03-08T02:47:00.105Z,6.49
2023-03-08T02:48:01.066Z,6.5
2023-03-08T02:49:02.849Z,6.36
2023-03-08T02:50:00.086Z,6.52
2023-03-08T02:51:00.113Z,6.38
2023-03-08T02:52:00.117Z,6.38
2023-03-08T02:53:00.114Z,6.52
2023-03-08T02:54:00.137Z,6.38
2023-03-08T02:55:00.112Z,6.49
2023-03-08T02:56:00.098Z,6.5
2023-03-08T02:57:00.085Z,6.46
2023-03-08T02:58:00.041Z,6.35
2023-03-08T02:59:00.076Z,6.36
2023-03-08T03:00:01.116Z,6.29
2023-03-08T03:01:00.206Z,6.39
2023-03-08T03:02:00.069Z,6.44
2023-03-08T03:03:00.044Z,6.39
2023-03-08T03:04:00.064Z,6.28
2023-03-08T03:05:00.122Z,6.31
2023-03-08T03:06:00.476Z,6.36
2023-03-08T03:07:00.122Z,6.26
2023-03-08T03:08:00.118Z,6.25
2023-03-08T03:09:00.143Z,6.34
2023-03-08T03:10:00.205Z,6.26
2023-03-08T03:11:03.014Z,6.32
2023-03-08T03:12:00.130Z,6.1
2023-03-08T03:13:00.105Z,6.25
2023-03-08T03:14:00.114Z,6.2
2023-03-08T03:15:01.148Z,6.28
2023-03-08T03:16:00.441Z,6.32
2023-03-08T03:17:00.112Z,6.22
2023-03-08T03:18:00.111Z,6.2
2023-03-08T03:19:00.105Z,6.1
2023-03-08T03:20:00.099Z,6.17
2023-03-08T03:21:00.069Z,6.2
2023-03-08T03:22:03.042Z,6.25
2023-03-08T03:23:00.115Z,6.2
2023-03-08T03:24:00.117Z,6.2
2023-03-08T03:25:00.119Z,6.19
2023-03-08T03:26:00.145Z,6.17
2023-03-08T03:27:00.184Z,6.15
2023-03-08T03:28:00.117Z,6.19
2023-03-08T03:29:00.124Z,6.22
2023-03-08T03:30:00.112Z,6.12
2023-03-08T03:31:00.257Z,6.19
2023-03-08T03:32:00.169Z,6.19
2023-03-08T03:33:02.886Z,6.17
2023-03-08T03:34:00.098Z,6.13
2023-03-08T03:35:00.110Z,6.1
2023-03-08T03:36:00.213Z,6.19
2023-03-08T03:37:00.113Z,6.15
2023-03-08T03:38:00.128Z,6.25
2023-03-08T03:39:00.148Z,6.12
2023-03-08T03:40:00.144Z,6.16
2023-03-08T03:41:00.138Z,6.19
2023-03-08T03:42:00.212Z,6.1
2023-03-08T03:43:00.150Z,6.09
2023-03-08T03:44:03.005Z,6.07
2023-03-08T03:45:00.149Z,6.13
2023-03-08T03:46:00.133Z,6.16
2023-03-08T03:47:00.110Z,6.1
2023-03-08T03:48:00.166Z,6.13
2023-03-08T03:48:59.979Z,6.2
2023-03-08T03:50:00.143Z,6.1
2023-03-08T03:51:00.127Z,6.05
2023-03-08T03:52:00.142Z,6.07
2023-03-08T03:53:00.166Z,6.05
2023-03-08T03:54:00.124Z,6.05
2023-03-08T03:55:00.161Z,5.99
2023-03-08T03:56:00.153Z,5.9
2023-03-08T03:57:00.161Z,5.91
2023-03-08T03:58:00.242Z,5.88
2023-03-08T03:59:00.144Z,5.87
2023-03-08T04:00:03.134Z,5.97
2023-03-08T04:01:00.173Z,5.87
2023-03-08T04:02:00.177Z,5.87
2023-03-08T04:03:00.254Z,5.98
2023-03-08T04:04:00.325Z,5.9
2023-03-08T04:05:00.138Z,5.91
2023-03-08T04:06:00.153Z,5.77
2023-03-08T04:07:00.185Z,5.87
2023-03-08T04:08:00.222Z,5.83
2023-03-08T04:09:00.163Z,5.76
2023-03-08T04:10:00.214Z,5.88
2023-03-08T04:11:00.186Z,5.84
2023-03-08T04:12:00.146Z,5.77
2023-03-08T04:13:00.202Z,5.83
2023-03-08T04:14:00.232Z,5.83
2023-03-08T04:15:00.433Z,5.72
2023-03-08T04:16:04.237Z,5.74
2023-03-08T04:17:00.180Z,5.79
2023-03-08T04:18:00.206Z,5.81
2023-03-08T04:19:00.261Z,5.76
2023-03-08T04:20:00.177Z,5.74
2023-03-08T04:21:00.362Z,5.83
2023-03-08T04:22:00.183Z,5.8
2023-03-08T04:23:00.236Z,5.77
2023-03-08T04:24:02.784Z,5.69
2023-03-08T04:25:00.211Z,5.69
2023-03-08T04:26:00.178Z,5.62
2023-03-08T04:27:03.378Z,5.76
2023-03-08T04:28:00.215Z,5.65
2023-03-08T04:29:00.197Z,5.64
2023-03-08T04:30:00.860Z,5.69
2023-03-08T04:31:00.231Z,5.65
2023-03-08T04:32:03.157Z,5.64
2023-03-08T04:33:00.243Z,5.54
2023-03-08T04:34:00.182Z,5.56
2023-03-08T04:35:00.196Z,5.59
2023-03-08T04:36:00.342Z,5.61
2023-03-08T04:37:00.224Z,5.51
2023-03-08T04:38:03.334Z,5.58
2023-03-08T04:39:00.227Z,5.49
2023-03-08T04:40:00.207Z,5.61
2023-03-08T04:41:00.196Z,5.52
2023-03-08T04:42:00.221Z,5.55
2023-03-08T04:43:01.566Z,5.51
2023-03-08T04:44:00.214Z,5.59
2023-03-08T04:45:00.206Z,5.49
2023-03-08T04:46:00.252Z,5.61
2023-03-08T04:47:00.520Z,5.54
2023-03-08T04:48:00.316Z,5.52
2023-03-08T04:49:03.200Z,5.41
2023-03-08T04:50:00.231Z,5.52
2023-03-08T04:51:00.250Z,5.34
2023-03-08T04:52:00.237Z,5.38
2023-03-08T04:53:00.268Z,5.47
2023-03-08T04:54:03.057Z,5.49
2023-03-08T04:55:00.218Z,5.29
2023-03-08T04:56:00.246Z,5.34
2023-03-08T04:57:03.357Z,5.33
2023-03-08T04:58:00.279Z,5.37
2023-03-08T04:59:00.234Z,5.37
2023-03-08T05:00:03.244Z,5.46
2023-03-08T05:01:00.258Z,5.37
2023-03-08T05:02:00.441Z,5.47
2023-03-08T05:03:00.287Z,5.46
2023-03-08T05:04:00.280Z,5.36
2023-03-08T05:05:03.368Z,5.38
2023-03-08T05:06:00.241Z,5.29
2023-03-08T05:07:00.239Z,5.33
2023-03-08T05:08:00.275Z,5.46
2023-03-08T05:09:00.304Z,5.36
2023-03-08T05:10:00.257Z,5.33
2023-03-08T05:11:06.078Z,5.36
2023-03-08T05:12:01.337Z,5.38
2023-03-08T05:13:00.285Z,5.37
2023-03-08T05:14:00.270Z,5.31
2023-03-08T05:15:00.270Z,5.38
2023-03-08T05:16:03.421Z,5.33
2023-03-08T05:17:02.405Z,5.36
2023-03-08T05:18:00.437Z,5.37
2023-03-08T05:19:00.271Z,5.37
2023-03-08T05:20:00.301Z,5.36
2023-03-08T05:21:00.295Z,5.33
2023-03-08T05:22:00.273Z,5.31
2023-03-08T05:23:03.990Z,5.26
2023-03-08T05:24:00.269Z,5.23
2023-03-08T05:25:00.705Z,5.22
2023-03-08T05:26:00.281Z,5.28
2023-03-08T05:27:03.381Z,5.19
2023-03-08T05:28:00.261Z,5.19
2023-03-08T05:29:00.282Z,5.1
2023-03-08T05:30:00.287Z,5.16
2023-03-08T05:31:00.293Z,5.12
2023-03-08T05:32:00.461Z,5.18
2023-03-08T05:33:00.294Z,5.13
2023-03-08T05:34:00.349Z,5.13
2023-03-08T05:35:00.274Z,5.19
2023-03-08T05:36:00.450Z,5.2
2023-03-08T05:37:00.300Z,5.1
2023-03-08T05:38:03.328Z,5.16
2023-03-08T05:39:00.272Z,5.19
2023-03-08T05:40:00.321Z,5.1
2023-03-08T05:41:00.303Z,5.18
2023-03-08T05:42:00.304Z,5.07
2023-03-08T05:43:00.308Z,5.18
2023-03-08T05:44:00.334Z,5.2
2023-03-08T05:45:00.325Z,5.19
2023-03-08T05:46:00.943Z,5.19
2023-03-08T05:47:00.325Z,5.19
2023-03-08T05:48:00.303Z,5.18
2023-03-08T05:49:03.410Z,5.2
2023-03-08T05:50:00.319Z,5.16
2023-03-08T05:51:00.332Z,5.25
2023-03-08T05:52:00.342Z,5.23
2023-03-08T05:53:00.324Z,5.18
2023-03-08T05:54:00.365Z,5.25
2023-03-08T05:55:00.326Z,5.1
2023-03-08T05:56:00.314Z,5.2
2023-03-08T05:57:00.336Z,5.18
2023-03-08T05:58:00.315Z,5.25
2023-03-08T05:59:00.359Z,5.18
2023-03-08T06:00:03.349Z,5.19
2023-03-08T06:01:00.320Z,5.13
2023-03-08T06:02:00.417Z,5.2
2023-03-08T06:03:00.641Z,5.19
2023-03-08T06:04:01.433Z,5.22
2023-03-08T06:05:00.617Z,5.25
2023-03-08T06:06:00.350Z,5.23
2023-03-08T06:07:00.367Z,5.26
2023-03-08T06:08:00.367Z,5.28
2023-03-08T06:09:00.396Z,5.33
2023-03-08T06:10:00.440Z,5.28
2023-03-08T06:11:03.402Z,5.23
2023-03-08T06:12:00.358Z,5.15
2023-03-08T06:13:00.354Z,5.19
2023-03-08T06:14:00.401Z,5.28
2023-03-08T06:15:00.383Z,5.22
2023-03-08T06:16:03.142Z,5.26
2023-03-08T06:17:00.608Z,5.23
2023-03-08T06:18:00.342Z,5.23
2023-03-08T06:19:00.374Z,5.2
2023-03-08T06:20:00.352Z,5.2
2023-03-08T06:21:00.428Z,5.25
2023-03-08T06:22:00.366Z,5.25
2023-03-08T06:23:00.358Z,5.31
2023-03-08T06:24:00.427Z,5.25
2023-03-08T06:25:00.363Z,5.26
2023-03-08T06:26:00.355Z,5.26
2023-03-08T06:27:03.445Z,5.23
2023-03-08T06:28:00.369Z,5.33
2023-03-08T06:29:00.405Z,5.29
2023-03-08T06:30:00.383Z,5.37
2023-03-08T06:31:00.529Z,5.28
2023-03-08T06:32:02.765Z,5.33
2023-03-08T06:33:00.361Z,5.33
2023-03-08T06:34:00.416Z,5.31
2023-03-08T06:35:00.389Z,5.28
2023-03-08T06:36:00.682Z,5.44
2023-03-08T06:37:00.457Z,5.34
2023-03-08T06:38:00.396Z,5.4
2023-03-08T06:39:00.397Z,5.36
2023-03-08T06:40:00.411Z,5.37
2023-03-08T06:41:00.393Z,5.44
2023-03-08T06:42:00.385Z,5.49
2023-03-08T06:43:03.398Z,5.54
2023-03-08T06:44:03.372Z,5.4
2023-03-08T06:45:00.401Z,5.47
2023-03-08T06:46:00.551Z,5.49
2023-03-08T06:47:00.423Z,5.49
2023-03-08T06:48:00.403Z,5.49
2023-03-08T06:49:00.274Z,5.61
2023-03-08T06:50:00.398Z,5.54
2023-03-08T06:51:00.430Z,5.52
2023-03-08T06:52:00.452Z,5.64
2023-03-08T06:53:00.493Z,5.49
2023-03-08T06:54:01.517Z,5.55
2023-03-08T06:55:00.409Z,5.62
2023-03-08T06:56:00.451Z,5.58
2023-03-08T06:57:06.732Z,5.56
2023-03-08T06:58:00.785Z,5.55
2023-03-08T06:59:01.625Z,5.61
2023-03-08T07:00:00.428Z,5.61
2023-03-08T07:01:00.525Z,5.61
2023-03-08T07:02:00.447Z,5.69
2023-03-08T07:03:00.422Z,5.61
2023-03-08T07:04:00.641Z,5.64
2023-03-08T07:05:03.208Z,5.69
2023-03-08T07:06:00.442Z,5.62
2023-03-08T07:07:00.526Z,5.67
2023-03-08T07:08:00.474Z,5.58
2023-03-08T07:09:00.614Z,5.72
2023-03-08T07:10:03.450Z,5.64
2023-03-08T07:11:00.469Z,5.64
2023-03-08T07:12:00.897Z,5.62
2023-03-08T07:13:00.800Z,5.73
2023-03-08T07:14:00.491Z,5.72
2023-03-08T07:15:00.447Z,5.73
2023-03-08T07:16:03.642Z,5.72
2023-03-08T07:17:00.432Z,5.77
2023-03-08T07:18:00.725Z,5.8
2023-03-08T07:19:00.463Z,5.8
2023-03-08T07:20:00.440Z,5.83
2023-03-08T07:21:03.892Z,5.81
2023-03-08T07:22:00.448Z,5.79
2023-03-08T07:23:00.454Z,5.87
2023-03-08T07:24:00.668Z,5.9
2023-03-08T07:25:00.499Z,5.87
2023-03-08T07:26:00.489Z,5.97
2023-03-08T07:27:00.473Z,5.84
2023-03-08T07:28:00.492Z,5.88
2023-03-08T07:29:00.552Z,5.87
2023-03-08T07:30:00.919Z,5.83
2023-03-08T07:31:00.522Z,5.81
2023-03-08T07:32:03.540Z,5.79
2023-03-08T07:33:00.710Z,5.83
2023-03-08T07:34:00.498Z,5.74
2023-03-08T07:35:00.480Z,5.72
2023-03-08T07:36:00.624Z,5.77
2023-03-08T07:37:00.472Z,5.69
2023-03-08T07:38:00.470Z,5.77
2023-03-08T07:39:00.515Z,5.73
2023-03-08T07:40:00.492Z,5.72
2023-03-08T07:41:00.564Z,5.65
2023-03-08T07:42:00.486Z,5.65
2023-03-08T07:43:00.669Z,5.67
2023-03-08T07:44:00.568Z,5.73
2023-03-08T07:45:00.498Z,5.67
2023-03-08T07:46:00.641Z,5.65
2023-03-08T07:47:01.516Z,5.69
2023-03-08T07:48:00.536Z,5.76
2023-03-08T07:49:00.643Z,5.76
2023-03-08T07:50:00.339Z,5.74
2023-03-08T07:51:00.530Z,5.83
2023-03-08T07:52:00.514Z,5.76
2023-03-08T07:53:00.507Z,5.8
2023-03-08T07:54:09.444Z,5.74
2023-03-08T07:55:00.487Z,5.77
2023-03-08T07:56:00.501Z,5.72
2023-03-08T07:57:00.489Z,5.87
2023-03-08T07:58:00.518Z,5.77
2023-03-08T07:59:00.513Z,5.77
2023-03-08T08:00:00.611Z,5.76
2023-03-08T08:01:00.513Z,5.81
2023-03-08T08:02:00.508Z,5.79
2023-03-08T08:03:00.691Z,5.83
2023-03-08T08:04:00.518Z,5.64
2023-03-08T08:05:03.694Z,5.73
2023-03-08T08:06:00.584Z,5.67
2023-03-08T08:07:00.514Z,5.62
2023-03-08T08:08:00.558Z,5.52
2023-03-08T08:09:00.529Z,5.54
2023-03-08T08:10:00.573Z,5.54
2023-03-08T08:11:06.091Z,5.62
2023-03-08T08:12:00.680Z,5.52
2023-03-08T08:13:00.454Z,5.64
2023-03-08T08:14:00.545Z,5.55
2023-03-08T08:15:00.549Z,5.62
2023-03-08T08:16:03.641Z,5.61
2023-03-08T08:17:00.562Z,5.55
2023-03-08T08:18:00.558Z,5.49
2023-03-08T08:19:00.550Z,5.55
2023-03-08T08:20:00.571Z,5.38
2023-03-08T08:21:00.549Z,5.46
2023-03-08T08:22:00.425Z,5.51
2023-03-08T08:23:00.540Z,5.47
2023-03-08T08:24:00.705Z,5.33
2023-03-08T08:25:00.587Z,5.49
2023-03-08T08:26:01.095Z,5.41
2023-03-08T08:27:03.213Z,5.43
2023-03-08T08:28:00.569Z,5.38
2023-03-08T08:29:00.763Z,5.34
2023-03-08T08:30:00.626Z,5.36
2023-03-08T08:31:00.653Z,5.38
2023-03-08T08:32:00.624Z,5.33
2023-03-08T08:33:00.574Z,5.25
2023-03-08T08:34:00.574Z,5.31
2023-03-08T08:35:02.528Z,5.31
2023-03-08T08:36:00.674Z,5.23
2023-03-08T08:37:00.554Z,5.25
2023-03-08T08:38:03.761Z,5.29
2023-03-08T08:39:12.714Z,5.28
2023-03-08T08:40:00.584Z,5.26
2023-03-08T08:41:00.571Z,5.33
2023-03-08T08:42:00.593Z,5.25
2023-03-08T08:43:00.567Z,5.33
2023-03-08T08:44:00.591Z,5.19
2023-03-08T08:45:00.658Z,5.18
2023-03-08T08:46:00.698Z,5.16
2023-03-08T08:47:00.701Z,5.07
2023-03-08T08:48:00.658Z,5.18
2023-03-08T08:49:00.624Z,5.16
2023-03-08T08:50:00.483Z,5.18
2023-03-08T08:51:00.594Z,5.08
2023-03-08T08:52:00.587Z,5.18
2023-03-08T08:53:00.834Z,5.13
2023-03-08T08:54:03.797Z,5.08
2023-03-08T08:55:00.466Z,5.01
2023-03-08T08:56:00.581Z,5.04
2023-03-08T08:57:00.605Z,5.05
2023-03-08T08:58:00.618Z,5.1
2023-03-08T08:59:00.617Z,5.15
2023-03-08T09:00:00.660Z,5.12
2023-03-08T09:01:00.729Z,5.18
2023-03-08T09:02:00.671Z,5.2
2023-03-08T09:03:00.646Z,5.05
2023-03-08T09:04:00.972Z,4.95
2023-03-08T09:05:00.803Z,5.19
2023-03-08T09:06:00.628Z,4.98
2023-03-08T09:07:00.633Z,4.97
2023-03-08T09:08:00.626Z,4.9
2023-03-08T09:09:00.669Z,4.87
2023-03-08T09:10:03.426Z,4.92
2023-03-08T09:11:00.626Z,4.98
2023-03-08T09:12:00.850Z,5.04
2023-03-08T09:13:02.349Z,5.1
2023-03-08T09:14:00.798Z,4.89
2023-03-08T09:15:00.633Z,5
2023-03-08T09:16:00.637Z,4.84
2023-03-08T09:17:00.863Z,4.79
2023-03-08T09:18:00.644Z,4.79
2023-03-08T09:19:00.635Z,4.71
2023-03-08T09:20:00.709Z,4.66
2023-03-08T09:21:03.546Z,4.7
2023-03-08T09:22:00.653Z,4.71
2023-03-08T09:23:01.103Z,4.68
2023-03-08T09:24:00.639Z,4.68
2023-03-08T09:25:00.662Z,4.64
2023-03-08T09:26:07.001Z,4.6
2023-03-08T09:27:00.524Z,4.74
2023-03-08T09:28:01.676Z,4.61
2023-03-08T09:29:00.689Z,4.64
2023-03-08T09:30:00.698Z,4.64
2023-03-08T09:31:00.663Z,4.64
2023-03-08T09:32:06.417Z,4.4
2023-03-08T09:33:00.714Z,4.48
2023-03-08T09:34:00.508Z,4.5
2023-03-08T09:35:00.681Z,4.43
2023-03-08T09:36:00.909Z,4.49
2023-03-08T09:37:03.493Z,4.32
2023-03-08T09:38:01.323Z,4.3
2023-03-08T09:39:00.786Z,4.34
2023-03-08T09:40:00.712Z,4.24
2023-03-08T09:41:01.730Z,4.25
2023-03-08T09:42:00.761Z,4.2
2023-03-08T09:43:03.695Z,4.14
2023-03-08T09:44:00.652Z,4.18
2023-03-08T09:45:00.733Z,4.16
2023-03-08T09:46:00.984Z,4.18
2023-03-08T09:47:00.695Z,4.1
2023-03-08T09:48:03.681Z,4.09
2023-03-08T09:49:00.684Z,4
2023-03-08T09:50:00.732Z,4.06
2023-03-08T09:51:00.687Z,3.96
2023-03-08T09:52:00.895Z,3.94
2023-03-08T09:53:00.724Z,3.96
2023-03-08T09:54:03.552Z,4.06
2023-03-08T09:55:00.859Z,4.09
2023-03-08T09:56:00.695Z,4.06
2023-03-08T09:57:00.723Z,4.02
2023-03-08T09:58:00.879Z,4
2023-03-08T09:59:03.456Z,4.1
2023-03-08T10:00:00.782Z,4.14
2023-03-08T10:01:00.864Z,4.16
2023-03-08T10:02:00.730Z,4.16
2023-03-08T10:03:00.884Z,4.14
2023-03-08T10:04:00.970Z,4.09
2023-03-08T10:05:16.748Z,4.12
2023-03-08T10:06:01.792Z,4.18
2023-03-08T10:07:00.763Z,4.22
2023-03-08T10:08:00.818Z,4.09
2023-03-08T10:09:01.750Z,4.14
2023-03-08T10:10:03.584Z,4.2
2023-03-08T10:11:00.804Z,4.07
2023-03-08T10:12:03.441Z,4.16
2023-03-08T10:13:00.768Z,4.1
2023-03-08T10:14:00.774Z,4.18
2023-03-08T10:15:00.785Z,4.24
2023-03-08T10:16:00.811Z,4.12
2023-03-08T10:17:01.082Z,4.25
2023-03-08T10:18:03.471Z,4.25
2023-03-08T10:19:00.788Z,4.16
2023-03-08T10:20:00.821Z,4.1
2023-03-08T10:21:03.752Z,4.27
2023-03-08T10:22:00.758Z,4.13
2023-03-08T10:23:00.750Z,4.2
2023-03-08T10:24:00.780Z,4.22
2023-03-08T10:25:00.747Z,4.22
2023-03-08T10:26:00.781Z,4.18
2023-03-08T10:27:00.739Z,4.14
2023-03-08T10:28:00.775Z,4.16
2023-03-08T10:29:00.774Z,4.24
2023-03-08T10:30:00.801Z,4.27
2023-03-08T10:31:01.262Z,4.28
2023-03-08T10:32:04.102Z,4.13
2023-03-08T10:33:01.242Z,4.12
2023-03-08T10:34:00.805Z,4.13
2023-03-08T10:35:00.753Z,4.22
2023-03-08T10:36:01.059Z,4.09
2023-03-08T10:37:00.820Z,4.3
2023-03-08T10:38:00.751Z,4.21
2023-03-08T10:39:01.313Z,4.14
2023-03-08T10:40:00.619Z,4.21
2023-03-08T10:41:00.762Z,4.21
2023-03-08T10:42:00.763Z,4.2
2023-03-08T10:43:03.567Z,4.12
2023-03-08T10:44:00.781Z,4.32
2023-03-08T10:45:00.797Z,4.13
2023-03-08T10:46:01.119Z,4.13
2023-03-08T10:47:00.773Z,4.25
2023-03-08T10:48:00.886Z,4.06
2023-03-08T10:49:00.791Z,4.16
2023-03-08T10:50:00.639Z,4.13
2023-03-08T10:51:00.806Z,4.2
2023-03-08T10:52:00.976Z,4.2
2023-03-08T10:53:00.722Z,4.1
2023-03-08T10:54:03.602Z,4.27
2023-03-08T10:55:01.679Z,4.18
2023-03-08T10:56:01.000Z,4.12
2023-03-08T10:57:00.801Z,4.22
2023-03-08T10:58:00.932Z,4.14
2023-03-08T10:59:00.798Z,4.16
2023-03-08T11:00:00.774Z,4.31
2023-03-08T11:01:00.852Z,4.25
2023-03-08T11:02:00.821Z,4.31
2023-03-08T11:03:00.865Z,4.34
2023-03-08T11:04:00.783Z,4.36
2023-03-08T11:05:03.885Z,4.28
2023-03-08T11:06:00.860Z,4.3
2023-03-08T11:07:00.788Z,4.25
2023-03-08T11:08:00.915Z,4.32
2023-03-08T11:09:00.810Z,4.25
2023-03-08T11:10:00.803Z,4.36
2023-03-08T11:11:00.928Z,4.56
2023-03-08T11:12:01.058Z,4.39
2023-03-08T11:13:00.682Z,4.39
2023-03-08T11:14:00.639Z,4.46
2023-03-08T11:15:00.927Z,4.46
2023-03-08T11:16:01.043Z,4.45
2023-03-08T11:17:00.866Z,4.53
2023-03-08T11:18:01.841Z,4.48
2023-03-08T11:19:00.972Z,4.42
2023-03-08T11:20:03.566Z,4.42
2023-03-08T11:21:01.769Z,4.43
2023-03-08T11:22:00.819Z,4.49
2023-03-08T11:23:00.905Z,4.49
2023-03-08T11:24:00.955Z,4.48
2023-03-08T11:25:00.834Z,4.45
2023-03-08T11:26:00.905Z,4.49
2023-03-08T11:27:01.058Z,4.48
2023-03-08T11:28:01.196Z,4.46
2023-03-08T11:29:01.285Z,4.45
2023-03-08T11:30:00.831Z,4.56
2023-03-08T11:31:01.007Z,4.56
2023-03-08T11:32:00.833Z,4.52
2023-03-08T11:33:01.531Z,4.63
2023-03-08T11:34:01.401Z,4.6
2023-03-08T11:35:00.867Z,4.57
2023-03-08T11:36:01.094Z,4.57
2023-03-08T11:37:03.646Z,4.63
2023-03-08T11:38:03.641Z,4.56
2023-03-08T11:39:00.860Z,4.48
2023-03-08T11:40:03.644Z,4.57
2023-03-08T11:41:00.892Z,4.61
2023-03-08T11:42:00.879Z,4.67
2023-03-08T11:43:00.861Z,4.61
2023-03-08T11:44:00.750Z,4.64
2023-03-08T11:45:00.890Z,4.61
2023-03-08T11:46:00.880Z,4.63
2023-03-08T11:47:01.052Z,4.82
2023-03-08T11:48:03.920Z,4.75
2023-03-08T11:49:01.150Z,4.78
2023-03-08T11:50:00.874Z,4.86
2023-03-08T11:51:00.903Z,4.82
2023-03-08T11:52:00.905Z,4.87
2023-03-08T11:53:00.911Z,4.83
2023-03-08T11:54:00.929Z,4.82
2023-03-08T11:55:00.957Z,4.83
2023-03-08T11:56:00.974Z,4.94
2023-03-08T11:57:00.906Z,4.87
2023-03-08T11:58:00.887Z,4.82
2023-03-08T11:59:03.816Z,4.86
2023-03-08T12:00:00.946Z,4.82
2023-03-08T12:01:00.765Z,4.76
2023-03-08T12:02:00.745Z,4.86
2023-03-08T12:03:00.946Z,4.9
2023-03-08T12:04:06.668Z,4.92
2023-03-08T12:05:01.385Z,4.83
2023-03-08T12:06:01.528Z,4.89
2023-03-08T12:07:01.246Z,4.87
2023-03-08T12:08:01.005Z,4.94
2023-03-08T12:09:01.095Z,4.87
2023-03-08T12:10:03.894Z,4.87
2023-03-08T12:11:00.978Z,4.9
2023-03-08T12:12:03.304Z,4.9
2023-03-08T12:13:00.897Z,4.86
2023-03-08T12:14:00.921Z,5.04
2023-03-08T12:15:02.214Z,5.04
2023-03-08T12:16:01.228Z,4.98
2023-03-08T12:17:01.484Z,4.92
2023-03-08T12:18:00.956Z,4.95
2023-03-08T12:19:00.921Z,5
2023-03-08T12:20:01.132Z,5.02
2023-03-08T12:21:03.763Z,5.02
2023-03-08T12:22:01.008Z,5.08
2023-03-08T12:23:01.151Z,5.04
2023-03-08T12:24:03.541Z,5.05
2023-03-08T12:25:00.966Z,5.07
2023-03-08T12:26:03.767Z,5.13
2023-03-08T12:27:01.084Z,5.07
2023-03-08T12:28:01.140Z,5.16
2023-03-08T12:29:00.937Z,5.19
2023-03-08T12:30:00.926Z,5.15
2023-03-08T12:31:01.037Z,5.18
2023-03-08T12:32:01.434Z,5.29
2023-03-08T12:33:01.802Z,5.16
2023-03-08T12:34:01.034Z,5.22
2023-03-08T12:35:00.946Z,5.16
2023-03-08T12:36:01.388Z,5.28
2023-03-08T12:37:04.066Z,5.19
2023-03-08T12:38:01.201Z,5.33
2023-03-08T12:39:00.904Z,5.36
2023-03-08T12:40:00.973Z,5.4
2023-03-08T12:41:01.103Z,5.38
2023-03-08T12:42:00.944Z,5.41
2023-03-08T12:43:00.865Z,5.46
2023-03-08T12:44:01.086Z,5.46
2023-03-08T12:45:01.010Z,5.46
2023-03-08T12:46:01.384Z,5.43
2023-03-08T12:47:08.310Z,5.36
2023-03-08T12:48:04.263Z,5.49
2023-03-08T12:49:01.112Z,5.4
2023-03-08T12:50:01.149Z,5.46
2023-03-08T12:51:04.263Z,5.51
2023-03-08T12:52:00.920Z,5.55
2023-03-08T12:53:01.141Z,5.49
2023-03-08T12:54:01.010Z,5.38
2023-03-08T12:55:00.985Z,5.49
2023-03-08T12:56:00.868Z,5.44
2023-03-08T12:57:00.999Z,5.55
2023-03-08T12:58:00.994Z,5.61
2023-03-08T12:59:03.991Z,5.56
2023-03-08T13:00:01.002Z,5.61
2023-03-08T13:01:01.124Z,5.59
2023-03-08T13:02:00.770Z,5.61
2023-03-08T13:03:02.385Z,5.7
2023-03-08T13:04:00.926Z,5.74
2023-03-08T13:05:01.312Z,5.79
2023-03-08T13:06:00.875Z,5.8
2023-03-08T13:07:00.844Z,5.74
2023-03-08T13:08:01.040Z,5.74
2023-03-08T13:09:01.028Z,5.73
2023-03-08T13:10:03.688Z,5.87
2023-03-08T13:11:01.057Z,5.84
2023-03-08T13:12:00.859Z,5.81
2023-03-08T13:13:01.178Z,5.9
2023-03-08T13:14:01.118Z,5.91
2023-03-08T13:15:03.810Z,5.91
2023-03-08T13:16:01.027Z,5.88
2023-03-08T13:17:01.394Z,5.97
2023-03-08T13:18:01.065Z,6.01
2023-03-08T13:19:01.134Z,6.07
2023-03-08T13:20:01.217Z,6.07
2023-03-08T13:21:04.049Z,6.13